Time;durP1;ratioP1;P1;durP2;ratioP2;P2;SDS_P1;SDS_P2;PMS_P1;PMS_P2;Temp;Humidity;BMP_temperature;BMP_pressure;BME280_temperature;BME280_humidity;BME280_pressure;Samples;Min_cycle;Max_cycle;Signal;HPM_P1;HPM_P2
2021/04/28 00:00:25;;;;;;;0.55;0.55;;;;;;;-2.04;100.00;100949.36;1739043;81;21592;-42
2021/04/28 00:02:53;;;;;;;0.15;0.15;;;;;;;-2.05;100.00;100950.36;1745940;81;21126;-41
2021/04/28 00:05:20;;;;;;;0.10;0.10;;;;;;;-2.09;100.00;100945.89;1762026;81;21149;-41
2021/04/28 00:07:48;;;;;;;0.65;0.65;;;;;;;-2.08;100.00;100944.03;1744758;81;21956;-42
2021/04/28 00:10:17;;;;;;;0.20;0.20;;;;;;;-2.10;100.00;100956.77;1733791;81;21142;-42
2021/04/28 00:12:44;;;;;;;0.00;0.00;;;;;;;-2.14;100.00;100951.48;1749389;81;21141;-42
2021/04/28 00:15:16;;;;;;;0.03;0.03;;;;;;;-2.19;100.00;100949.35;1700801;81;21391;-42
2021/04/28 00:17:45;;;;;;;0.00;0.00;;;;;;;-2.22;100.00;100945.70;1724544;81;27929;-41
2021/04/28 00:20:15;;;;;;;0.42;0.42;;;;;;;-2.27;100.00;100948.11;1729970;81;21169;-41
2021/04/28 00:22:43;;;;;;;0.25;0.20;;;;;;;-2.31;100.00;100942.27;1749712;80;21177;-42
2021/04/28 00:25:14;;;;;;;0.10;0.10;;;;;;;-2.33;100.00;100948.81;1732169;82;21458;-42
2021/04/28 00:27:42;;;;;;;0.77;0.77;;;;;;;-2.37;100.00;100948.37;1732639;81;21170;-41
2021/04/28 00:30:11;;;;;;;0.10;0.10;;;;;;;-2.40;100.00;100948.70;1743892;81;21102;-41
2021/04/28 00:32:39;;;;;;;0.20;0.20;;;;;;;-2.42;100.00;100951.58;1743529;81;22139;-42
2021/04/28 00:35:10;;;;;;;0.47;0.30;;;;;;;-2.43;100.00;100950.41;1740831;81;21197;-42
2021/04/28 00:37:38;;;;;;;0.10;0.10;;;;;;;-2.46;100.00;100950.78;1741847;81;21544;-42
2021/04/28 00:40:08;;;;;;;0.20;0.20;;;;;;;-2.48;100.00;100953.63;1760177;81;21110;-42
2021/04/28 00:42:37;;;;;;;0.10;0.10;;;;;;;-2.50;100.00;100954.83;1761445;80;21151;-41
2021/04/28 00:45:05;;;;;;;0.10;0.10;;;;;;;-2.53;100.00;100953.86;1746757;81;21205;-41
2021/04/28 00:47:33;;;;;;;0.53;0.53;;;;;;;-2.55;100.00;100947.85;1732657;81;21134;-42
2021/04/28 00:50:00;;;;;;;1.00;1.00;;;;;;;-2.57;100.00;100956.56;1734328;81;21113;-41
2021/04/28 00:52:27;;;;;;;1.65;0.85;;;;;;;-2.58;100.00;100958.92;1727653;81;21138;-41
2021/04/28 00:54:55;;;;;;;0.10;0.10;;;;;;;-2.61;100.00;100958.27;1747424;81;21169;-42
2021/04/28 00:57:23;;;;;;;0.10;0.10;;;;;;;-2.63;100.00;100953.59;1747576;81;21402;-42
2021/04/28 00:59:50;;;;;;;0.20;0.20;;;;;;;-2.65;100.00;100954.28;1741011;81;21457;-42
2021/04/28 01:02:18;;;;;;;0.47;0.47;;;;;;;-2.67;100.00;100955.47;1731488;81;21450;-41
2021/04/28 01:04:45;;;;;;;0.62;0.62;;;;;;;-2.69;100.00;100961.02;1727158;83;21556;-42
2021/04/28 01:07:13;;;;;;;0.30;0.30;;;;;;;-2.71;100.00;100962.22;1717816;81;21118;-42
2021/04/28 01:09:41;;;;;;;6.00;1.70;;;;;;;-2.72;100.00;100961.87;1727776;81;21129;-42
2021/04/28 01:12:10;;;;;;;0.75;0.75;;;;;;;-2.75;100.00;100957.71;1740077;81;21126;-43
2021/04/28 01:14:37;;;;;;;2.05;1.95;;;;;;;-2.75;100.00;100967.08;1727139;81;21130;-41
2021/04/28 01:17:05;;;;;;;0.65;0.33;;;;;;;-2.77;100.00;100958.91;1751060;81;21111;-41
2021/04/28 01:19:38;;;;;;;1.00;0.93;;;;;;;-2.79;100.00;100958.24;1726185;83;21159;-41
2021/04/28 01:22:07;;;;;;;0.42;0.42;;;;;;;-2.81;100.00;100955.77;1726657;83;21209;-41
2021/04/28 01:24:35;;;;;;;0.20;0.20;;;;;;;-2.82;100.00;100956.76;1714694;81;21122;-42
2021/04/28 01:27:13;;;;;;;0.10;0.10;;;;;;;-2.84;100.00;100960.14;1748519;81;21122;-41
2021/04/28 01:29:42;;;;;;;0.28;0.28;;;;;;;-2.86;100.00;100958.16;1756375;81;21110;-43
2021/04/28 01:32:12;;;;;;;0.10;0.10;;;;;;;-2.87;100.00;100963.16;1757171;81;21640;-41
2021/04/28 01:34:40;;;;;;;0.28;0.28;;;;;;;-2.89;100.00;100968.70;1727133;81;21133;-42
2021/04/28 01:37:09;;;;;;;1.17;0.65;;;;;;;-2.90;100.00;100974.22;1701167;83;21154;-42
2021/04/28 01:39:37;;;;;;;0.25;0.25;;;;;;;-2.92;100.00;100970.38;1700685;83;21469;-41
2021/04/28 01:42:05;;;;;;;0.10;0.10;;;;;;;-2.92;100.00;100969.55;1678118;81;21623;-41
2021/04/28 01:44:32;;;;;;;0.50;0.50;;;;;;;-2.93;100.00;100971.91;1753675;80;21134;-41
2021/04/28 01:47:00;;;;;;;0.85;0.85;;;;;;;-2.95;100.00;100968.06;1701099;82;21185;-41
2021/04/28 01:49:28;;;;;;;1.30;0.42;;;;;;;-2.97;100.00;100970.59;1701940;82;21161;-42
2021/04/28 01:51:55;;;;;;;0.10;0.10;;;;;;;-2.99;100.00;100968.59;1734107;81;21146;-41
2021/04/28 01:54:24;;;;;;;0.20;0.20;;;;;;;-3.01;100.00;100967.45;1701560;82;21190;-42
2021/04/28 01:56:52;;;;;;;0.47;0.47;;;;;;;-3.03;100.00;100972.14;1702165;82;21115;-41
2021/04/28 01:59:24;;;;;;;;;;;;;;;-3.03;100.00;100974.81;1753847;81;21655;-42
2021/04/28 02:02:03;;;;;;;0.20;0.20;;;;;;;-3.00;100.00;100976.30;1755945;81;20261;-42
2021/04/28 02:04:33;;;;;;;0.00;0.00;;;;;;;-3.03;100.00;100985.51;1762863;81;21145;-42
2021/04/28 02:07:01;;;;;;;0.10;0.10;;;;;;;-3.06;100.00;100977.34;1762187;81;21146;-42
2021/04/28 02:09:31;;;;;;;0.00;0.00;;;;;;;-3.07;100.00;100982.34;1703613;82;21410;-43
2021/04/28 02:11:58;;;;;;;0.15;0.15;;;;;;;-3.08;100.00;100986.03;1755334;81;21246;-41
2021/04/28 02:14:27;;;;;;;0.17;0.17;;;;;;;-3.08;100.00;100985.21;1729297;81;21129;-42
2021/04/28 02:16:57;;;;;;;0.10;0.10;;;;;;;-3.10;100.00;100989.89;1731641;81;21660;-41
2021/04/28 02:19:26;;;;;;;0.10;0.10;;;;;;;-3.12;100.00;100986.05;1715344;81;21094;-41
2021/04/28 02:21:54;;;;;;;0.65;0.65;;;;;;;-3.12;100.00;100989.23;1762255;81;21154;-41
2021/04/28 02:24:26;;;;;;;0.10;0.10;;;;;;;-3.14;100.00;100988.09;1726145;81;21473;-42
2021/04/28 02:26:57;;;;;;;0.20;0.20;;;;;;;-3.16;100.00;100988.77;1701370;82;21616;-42
2021/04/28 02:29:26;;;;;;;0.45;0.40;;;;;;;-3.18;100.00;100993.45;1734338;81;21129;-43
2021/04/28 02:31:54;;;;;;;0.20;0.20;;;;;;;-3.21;100.00;100988.47;1757188;81;21094;-42
2021/04/28 02:34:24;;;;;;;0.20;0.20;;;;;;;-3.23;100.00;100989.14;1761279;81;21138;-43
2021/04/28 02:37:03;;;;;;;0.00;0.00;;;;;;;-3.20;100.00;100992.79;1824481;76;28626;-42
2021/04/28 02:39:56;;;;;;;0.10;0.10;;;;;;;-3.27;100.00;100997.17;1723366;80;21122;-40
2021/04/28 02:42:24;;;;;;;0.20;0.20;;;;;;;-3.30;100.00;100998.86;1753391;80;21150;-41
2021/04/28 02:44:52;;;;;;;0.42;0.42;;;;;;;-3.32;100.00;100993.68;1752821;80;21269;-42
2021/04/28 02:47:20;;;;;;;0.10;0.10;;;;;;;-3.31;100.00;100994.03;1688172;81;21130;-41
2021/04/28 02:49:48;;;;;;;0.10;0.10;;;;;;;-3.29;100.00;101005.86;1686913;83;21187;-42
2021/04/28 02:52:30;;;;;;;0.10;0.10;;;;;;;-3.22;100.00;100997.98;1845097;76;27290;-43
2021/04/28 02:54:57;;;;;;;0.15;0.15;;;;;;;-3.22;100.00;101011.35;1777661;80;21118;-40
2021/04/28 02:57:25;;;;;;;0.10;0.10;;;;;;;-3.19;100.00;101004.31;1731222;80;21114;-41
2021/04/28 02:59:53;;;;;;;0.30;0.30;;;;;;;-3.14;100.00;101006.81;1727870;81;21470;-41
2021/04/28 03:02:22;;;;;;;0.05;0.05;;;;;;;-3.11;100.00;101005.11;1781836;80;21114;-42
2021/04/28 03:04:52;;;;;;;0.20;0.20;;;;;;;-3.04;100.00;101005.25;1765095;80;21126;-41
2021/04/28 03:07:35;;;;;;;0.25;0.25;;;;;;;-2.94;100.00;101004.98;1766070;80;21568;-42
2021/04/28 03:10:04;;;;;;;0.17;0.17;;;;;;;-2.84;100.00;101006.45;1774744;80;21157;-41
2021/04/28 03:12:32;;;;;;;0.50;0.50;;;;;;;-2.76;100.00;101008.73;1729532;80;21185;-41
2021/04/28 03:15:00;;;;;;;0.25;0.25;;;;;;;-2.66;100.00;101017.35;1754150;80;21107;-41
2021/04/28 03:17:27;;;;;;;0.90;0.90;;;;;;;-2.56;100.00;101011.77;1764099;80;21087;-41
2021/04/28 03:19:57;;;;;;;0.30;0.30;;;;;;;-2.47;100.00;101019.55;1768673;80;21134;-41
2021/04/28 03:22:26;;;;;;;0.15;0.15;;;;;;;-2.38;100.00;101021.62;1778669;80;21146;-42
2021/04/28 03:24:55;;;;;;;0.80;0.53;;;;;;;-2.28;100.00;101024.88;1753075;79;21142;-43
2021/04/28 03:27:24;;;;;;;1.45;0.70;;;;;;;-2.20;100.00;101024.83;1742797;80;21121;-42
2021/04/28 03:29:54;;;;;;;0.57;0.30;;;;;;;-2.11;100.00;101028.77;1784189;80;22037;-41
2021/04/28 03:32:21;;;;;;;0.10;0.10;;;;;;;-2.03;100.00;101025.52;1762562;80;21687;-41
2021/04/28 03:34:51;;;;;;;0.42;0.42;;;;;;;-1.93;100.00;101027.90;1756524;80;21130;-41
2021/04/28 03:37:20;;;;;;;0.85;0.85;;;;;;;-1.85;100.00;101027.01;1760338;80;21470;-41
2021/04/28 03:39:49;;;;;;;0.10;0.10;;;;;;;-1.77;100.00;101033.09;1784074;80;21149;-42
2021/04/28 03:42:17;;;;;;;0.00;0.00;;;;;;;-1.68;100.00;101037.02;1755842;80;21122;-44
2021/04/28 03:44:45;;;;;;;0.00;0.00;;;;;;;-1.55;100.00;101041.23;1763743;80;21123;-44
2021/04/28 03:47:12;;;;;;;0.10;0.10;;;;;;;-1.41;100.00;101040.41;1764224;80;21178;-44
2021/04/28 03:49:41;;;;;;;0.62;0.35;;;;;;;-1.22;100.00;101034.13;1777499;80;21605;-44
2021/04/28 03:52:10;;;;;;;0.08;0.08;;;;;;;-0.91;100.00;101041.42;1756183;81;21635;-44
2021/04/28 03:54:40;;;;;;;0.20;0.20;;;;;;;-0.58;100.00;101043.61;1776713;80;21146;-45
2021/04/28 03:57:08;;;;;;;0.00;0.00;;;;;;;-0.28;100.00;101046.98;1788009;80;21116;-45
2021/04/28 03:59:36;;;;;;;1.22;1.12;;;;;;;-0.07;100.00;101043.45;1769269;80;21193;-45
2021/04/28 04:02:04;;;;;;;5.00;2.62;;;;;;;0.06;100.00;101046.75;1730309;81;21142;-45
2021/04/28 04:04:50;;;;;;;6.65;6.03;;;;;;;0.20;100.00;101039.63;1805078;76;28420;-45
2021/04/28 04:07:38;;;;;;;1.65;1.52;;;;;;;0.20;100.00;101043.66;1782790;80;21098;-45
2021/04/28 04:10:08;;;;;;;4.50;3.60;;;;;;;0.25;100.00;101049.75;1785563;78;21639;-45
2021/04/28 04:12:35;;;;;;;4.55;3.77;;;;;;;0.31;100.00;101045.78;1785816;80;21576;-45
2021/04/28 04:15:06;;;;;;;7.40;4.47;;;;;;;0.38;100.00;101046.66;1785992;80;21122;-44
2021/04/28 04:17:34;;;;;;;5.62;1.82;;;;;;;0.43;100.00;101053.61;1775317;80;21568;-45
2021/04/28 04:20:28;;;;;;;2.17;2.02;;;;;;;0.56;100.00;101050.16;1919047;73;29023;-44
2021/04/28 04:23:00;;;;;;;0.78;0.78;;;;;;;0.60;100.00;101050.61;1851526;76;21149;-45
2021/04/28 04:25:43;;;;;;;5.58;1.45;;;;;;;0.73;100.00;101052.01;1846576;76;29067;-45
2021/04/28 04:28:12;;;;;;;4.10;3.00;;;;;;;0.78;100.00;101052.23;1800829;78;21102;-45
2021/04/28 04:30:49;;;;;;;2.85;1.65;;;;;;;0.89;100.00;101058.07;1785050;80;21426;-46
2021/04/28 04:33:34;;;;;;;2.55;2.30;;;;;;;1.00;100.00;101059.68;1762537;80;21244;-45
2021/04/28 04:36:20;;;;;;;5.67;2.27;;;;;;;1.15;100.00;101058.70;1779650;80;21449;-45
2021/04/28 04:39:06;;;;;;;0.65;0.65;;;;;;;1.29;100.00;101059.88;1745504;80;21141;-45
2021/04/28 04:41:45;;;;;;;0.40;0.40;;;;;;;1.44;100.00;101062.41;1781332;80;21450;-45
2021/04/28 04:44:24;;;;;;;0.53;0.40;;;;;;;1.66;100.00;101075.19;1826048;76;29114;-45
2021/04/28 04:46:59;;;;;;;0.25;0.25;;;;;;;1.76;100.00;101068.57;1783036;80;21463;-45
2021/04/28 04:49:27;;;;;;;1.90;1.47;;;;;;;1.91;100.00;101071.89;1785411;78;21549;-45
2021/04/28 04:51:54;;;;;;;0.47;0.47;;;;;;;2.07;100.00;101076.02;1785834;80;21118;-45
2021/04/28 04:54:22;;;;;;;1.55;0.65;;;;;;;2.22;100.00;101079.86;1785988;80;21110;-45
2021/04/28 04:56:50;;;;;;;0.40;0.40;;;;;;;2.38;100.00;101079.43;1773497;80;21157;-45
2021/04/28 04:59:19;;;;;;;0.75;0.57;;;;;;;2.54;100.00;101084.36;1755658;80;21922;-45
2021/04/28 05:01:47;;;;;;;0.72;0.68;;;;;;;2.70;100.00;101086.33;1781575;80;21122;-45
2021/04/28 05:04:14;;;;;;;2.45;1.45;;;;;;;2.85;100.00;101090.95;1785714;78;21145;-45
2021/04/28 05:06:42;;;;;;;0.50;0.50;;;;;;;3.01;100.00;101097.20;1785137;78;21178;-45
2021/04/28 05:09:09;;;;;;;0.50;0.50;;;;;;;3.20;100.00;101100.05;1782388;80;20991;-45
2021/04/28 05:11:37;;;;;;;0.35;0.35;;;;;;;3.35;100.00;101099.25;1758385;80;21568;-45
2021/04/28 05:14:05;;;;;;;0.40;0.40;;;;;;;3.49;100.00;101100.52;1780316;80;21058;-45
2021/04/28 05:16:33;;;;;;;0.30;0.30;;;;;;;3.63;100.00;101104.80;1784419;80;21138;-45
2021/04/28 05:19:01;;;;;;;1.85;1.42;;;;;;;3.75;100.00;101113.88;1784062;78;21156;-47
2021/04/28 05:21:29;;;;;;;1.95;1.02;;;;;;;3.86;100.00;101115.89;1785756;80;21115;-45
2021/04/28 05:23:59;;;;;;;0.10;0.10;;;;;;;4.00;100.00;101120.66;1785880;80;21938;-45
2021/04/28 05:26:45;;;;;;;1.70;1.12;;;;;;;4.21;100.00;101118.13;1815991;76;28325;-45
2021/04/28 05:29:13;;;;;;;2.10;0.70;;;;;;;4.34;100.00;101128.53;1799908;78;21141;-45
2021/04/28 05:31:41;;;;;;;1.90;0.70;;;;;;;4.48;100.00;101124.66;1781484;80;21543;-45
2021/04/28 05:34:09;;;;;;;0.45;0.45;;;;;;;4.61;100.00;101126.41;1755792;80;21130;-45
2021/04/28 05:36:37;;;;;;;1.40;0.42;;;;;;;4.72;100.00;101127.01;1770764;80;21212;-45
2021/04/28 05:39:04;;;;;;;0.33;0.33;;;;;;;4.86;100.00;101131.23;1785850;78;21110;-45
2021/04/28 05:41:32;;;;;;;0.10;0.10;;;;;;;5.00;100.00;101133.82;1785790;80;21126;-45
2021/04/28 05:44:01;;;;;;;0.82;0.35;;;;;;;5.10;100.00;101133.58;1749799;80;21162;-44
2021/04/28 05:46:29;;;;;;;0.15;0.15;;;;;;;5.22;100.00;101134.16;1751279;80;21152;-45
2021/04/28 05:48:57;;;;;;;0.33;0.33;;;;;;;5.32;100.00;101136.66;1725624;81;21150;-44
2021/04/28 05:51:24;;;;;;;1.02;1.00;;;;;;;5.43;100.00;101144.53;1785320;80;21165;-45
2021/04/28 05:53:52;;;;;;;0.40;0.40;;;;;;;5.54;100.00;101143.78;1777483;78;21651;-45
2021/04/28 05:56:19;;;;;;;0.40;0.40;;;;;;;5.66;100.00;101147.05;1783512;80;21154;-45
2021/04/28 05:58:47;;;;;;;0.88;0.85;;;;;;;5.78;99.55;101147.92;1780627;79;21143;-45
2021/04/28 06:01:15;;;;;;;0.62;0.62;;;;;;;5.88;98.18;101150.08;1781470;80;21133;-45
2021/04/28 06:03:43;;;;;;;0.50;0.50;;;;;;;5.98;97.07;101152.58;1782983;80;21134;-45
2021/04/28 06:06:10;;;;;;;0.30;0.30;;;;;;;6.12;96.42;101151.83;1771644;80;21162;-45
2021/04/28 06:08:38;;;;;;;0.00;0.00;;;;;;;6.27;94.95;101156.81;1725037;81;21192;-45
2021/04/28 06:11:06;;;;;;;0.42;0.42;;;;;;;6.41;94.60;101155.55;1754636;81;21011;-45
2021/04/28 06:13:35;;;;;;;0.15;0.15;;;;;;;6.59;91.76;101161.94;1754717;81;21150;-45
2021/04/28 06:16:04;;;;;;;0.30;0.30;;;;;;;6.70;91.06;101154.33;1759725;80;21168;-45
2021/04/28 06:18:32;;;;;;;1.40;0.45;;;;;;;6.83;90.08;101159.52;1750131;80;21114;-45
2021/04/28 06:21:00;;;;;;;0.50;0.30;;;;;;;6.94;89.18;101159.73;1759766;80;21162;-45
2021/04/28 06:23:27;;;;;;;0.47;0.47;;;;;;;7.07;87.91;101156.25;1757388;80;21137;-45
2021/04/28 06:25:55;;;;;;;1.42;0.98;;;;;;;7.20;86.12;101153.80;1759101;81;21106;-45
2021/04/28 06:28:23;;;;;;;1.95;0.30;;;;;;;7.33;85.86;101159.49;1773674;79;21132;-45
2021/04/28 06:30:50;;;;;;;3.52;0.75;;;;;;;7.50;86.18;101155.48;1776475;80;21160;-45
2021/04/28 06:33:18;;;;;;;0.10;0.10;;;;;;;7.66;85.50;101163.40;1790785;78;21671;-46
2021/04/28 06:35:46;;;;;;;0.65;0.20;;;;;;;7.81;83.78;101162.33;1729759;82;21217;-45
2021/04/28 06:38:14;;;;;;;0.20;0.13;;;;;;;7.98;84.13;101161.00;1744923;81;21285;-46
2021/04/28 06:40:44;;;;;;;0.23;0.23;;;;;;;8.22;84.43;101160.89;1726502;82;21149;-45
2021/04/28 06:43:12;;;;;;;0.10;0.10;;;;;;;8.46;84.10;101164.33;1743160;80;21118;-45
2021/04/28 06:45:43;;;;;;;0.30;0.30;;;;;;;8.68;82.71;101165.73;1755057;81;21151;-46
2021/04/28 06:48:11;;;;;;;0.10;0.10;;;;;;;8.87;80.11;101167.11;1758750;81;21613;-46
2021/04/28 06:50:41;;;;;;;0.17;0.17;;;;;;;9.05;79.44;101166.02;1753229;81;21138;-45
2021/04/28 06:53:09;;;;;;;0.45;0.45;;;;;;;9.30;79.31;101168.26;1735554;81;21154;-45
2021/04/28 06:55:37;;;;;;;0.33;0.33;;;;;;;9.53;79.69;101162.25;1757604;81;21552;-45
2021/04/28 06:58:04;;;;;;;0.20;0.20;;;;;;;9.72;77.29;101169.03;1759282;81;21110;-46
2021/04/28 07:00:32;;;;;;;0.80;0.30;;;;;;;9.87;74.36;101172.46;1759160;81;21158;-46
2021/04/28 07:03:02;;;;;;;0.78;0.78;;;;;;;9.88;73.59;101180.38;1755526;81;21126;-46
2021/04/28 07:05:29;;;;;;;0.10;0.10;;;;;;;9.94;74.32;101181.27;1714342;82;21536;-46
2021/04/28 07:07:57;;;;;;;0.20;0.20;;;;;;;10.03;73.97;101181.63;1730509;82;21136;-45
2021/04/28 07:10:26;;;;;;;0.40;0.40;;;;;;;10.15;74.58;101181.47;1712526;82;21567;-46
2021/04/28 07:12:54;;;;;;;0.08;0.08;;;;;;;10.29;74.80;101186.83;1714711;82;21032;-46
2021/04/28 07:15:22;;;;;;;0.35;0.25;;;;;;;10.40;69.02;101185.82;1739479;82;21127;-45
2021/04/28 07:17:51;;;;;;;0.33;0.20;;;;;;;10.48;68.13;101188.61;1726367;83;21162;-45
2021/04/28 07:20:18;;;;;;;0.00;0.00;;;;;;;10.57;65.09;101191.16;1740040;82;21145;-45
2021/04/28 07:22:46;;;;;;;0.20;0.20;;;;;;;10.58;58.23;101188.69;1739627;82;21170;-45
2021/04/28 07:25:14;;;;;;;0.23;0.23;;;;;;;10.58;62.16;101187.32;1721040;82;21283;-46
2021/04/28 07:27:43;;;;;;;0.23;0.20;;;;;;;10.67;62.76;101185.77;1773559;80;21130;-46
2021/04/28 07:30:12;;;;;;;0.20;0.20;;;;;;;10.83;63.73;101184.50;1764270;80;21442;-46
2021/04/28 07:32:40;;;;;;;0.17;0.13;;;;;;;10.95;64.30;101187.34;1734363;81;21165;-46
2021/04/28 07:35:12;;;;;;;0.65;0.25;;;;;;;11.11;63.69;101181.95;1700440;84;21194;-46
2021/04/28 07:37:40;;;;;;;0.45;0.45;;;;;;;11.32;64.22;101185.61;1700669;82;21167;-46
2021/04/28 07:40:09;;;;;;;0.00;0.00;;;;;;;11.55;62.07;101190.65;1727677;82;21466;-46
2021/04/28 07:42:38;;;;;;;0.00;0.00;;;;;;;11.63;56.47;101183.27;1731983;82;21166;-46
2021/04/28 07:45:07;;;;;;;0.30;0.28;;;;;;;11.75;56.68;101186.34;1732704;81;21163;-46
2021/04/28 07:47:35;;;;;;;0.15;0.15;;;;;;;11.89;55.40;101180.63;1705301;82;21564;-46
2021/04/28 07:50:05;;;;;;;1.02;0.98;;;;;;;11.95;54.46;101180.94;1780156;78;21190;-46
2021/04/28 07:52:33;;;;;;;1.12;0.78;;;;;;;12.17;55.75;101189.48;1710476;81;21179;-46
2021/04/28 07:55:01;;;;;;;1.42;0.35;;;;;;;12.29;54.18;101187.81;1753195;81;21114;-46
2021/04/28 07:57:28;;;;;;;0.17;0.17;;;;;;;12.42;51.63;101179.89;1739507;81;21094;-46
2021/04/28 07:59:56;;;;;;;0.23;0.23;;;;;;;12.60;51.88;101183.99;1707367;83;21164;-46
2021/04/28 08:02:23;;;;;;;0.57;0.57;;;;;;;12.75;47.44;101176.30;1712510;82;21030;-46
2021/04/28 08:04:52;;;;;;;0.25;0.25;;;;;;;12.82;45.04;101176.84;1764314;80;21148;-46
2021/04/28 08:07:21;;;;;;;0.37;0.37;;;;;;;12.85;47.10;101180.39;1786746;79;21102;-46
2021/04/28 08:09:50;;;;;;;0.47;0.47;;;;;;;12.84;51.36;101183.44;1724963;82;21130;-46
2021/04/28 08:12:17;;;;;;;0.10;0.10;;;;;;;12.82;53.21;101185.07;1743141;81;21153;-46
2021/04/28 08:14:45;;;;;;;0.10;0.10;;;;;;;12.81;51.31;101177.95;1722557;82;21181;-46
2021/04/28 08:17:14;;;;;;;1.55;1.15;;;;;;;12.93;51.00;101176.82;1781129;78;21106;-46
2021/04/28 08:19:42;;;;;;;0.30;0.30;;;;;;;13.02;50.02;101180.09;1794035;79;21081;-46
2021/04/28 08:22:12;;;;;;;0.10;0.10;;;;;;;13.00;53.57;101180.10;1721381;83;21119;-46
2021/04/28 08:24:41;;;;;;;0.42;0.40;;;;;;;12.90;49.18;101178.20;1722428;83;21147;-46
2021/04/28 08:27:08;;;;;;;0.10;0.10;;;;;;;12.79;48.63;101182.89;1722803;81;21162;-46
2021/04/28 08:29:36;;;;;;;0.53;0.42;;;;;;;12.55;48.02;101173.03;1730056;82;21095;-46
2021/04/28 08:32:04;;;;;;;2.22;0.70;;;;;;;12.29;48.59;101176.34;1729853;82;21130;-46
2021/04/28 08:34:33;;;;;;;0.10;0.10;;;;;;;12.05;48.98;101174.66;1700435;81;21155;-46
2021/04/28 08:37:02;;;;;;;0.20;0.20;;;;;;;11.82;46.69;101177.33;1722141;83;21626;-46
2021/04/28 08:39:29;;;;;;;0.40;0.40;;;;;;;11.57;50.04;101188.47;1721437;83;21158;-45
2021/04/28 08:41:57;;;;;;;0.20;0.13;;;;;;;11.37;50.87;101185.63;1739232;81;21193;-46
2021/04/28 08:44:29;;;;;;;0.20;0.08;;;;;;;11.22;50.75;101188.30;1724494;81;21484;-46
2021/04/28 08:46:57;;;;;;;0.23;0.23;;;;;;;10.96;50.89;101189.52;1736947;82;21648;-46
2021/04/28 08:49:25;;;;;;;0.40;0.40;;;;;;;10.71;50.99;101186.89;1727306;82;21571;-45
2021/04/28 08:51:53;;;;;;;0.20;0.20;;;;;;;10.55;51.53;101194.69;1709127;82;21484;-45
2021/04/28 08:54:23;;;;;;;0.25;0.25;;;;;;;10.39;51.78;101187.47;1717509;82;21129;-46
2021/04/28 08:56:53;;;;;;;0.10;0.03;;;;;;;10.35;51.27;101194.52;1732378;82;21167;-45
2021/04/28 08:59:21;;;;;;;0.10;0.10;;;;;;;10.36;51.23;101188.81;1732129;82;21573;-45
2021/04/28 09:01:49;;;;;;;0.45;0.45;;;;;;;10.31;55.00;101184.12;1732026;82;21162;-45
2021/04/28 09:04:19;;;;;;;0.10;0.10;;;;;;;10.24;56.00;101186.75;1721826;82;21170;-45
2021/04/28 09:06:47;;;;;;;0.10;0.10;;;;;;;10.17;55.77;101180.67;1727651;81;21414;-45
2021/04/28 09:09:17;;;;;;;0.33;0.33;;;;;;;10.20;56.74;101181.52;1750271;81;21128;-45
2021/04/28 09:11:51;;;;;;;0.10;0.10;;;;;;;10.40;59.13;101174.89;1750487;81;21115;-45
2021/04/28 09:14:27;;;;;;;1.27;0.50;;;;;;;10.65;56.26;101179.73;1718498;83;21826;-45
2021/04/28 09:17:04;;;;;;;0.40;0.28;;;;;;;10.83;56.57;101184.50;1696615;83;21145;-45
2021/04/28 09:20:06;;;;;;;0.72;0.70;;;;;;;11.02;56.16;101184.35;1660999;86;21464;-45
2021/04/28 09:22:49;;;;;;;0.80;0.78;;;;;;;11.25;53.30;101176.81;1883698;75;22758;-45
2021/04/28 09:25:49;;;;;;;1.20;0.45;;;;;;;11.33;54.59;101180.43;1802225;78;21249;-45
2021/04/28 09:28:34;;;;;;;0.10;0.10;;;;;;;11.42;50.75;101174.70;1824621;78;21130;-45
2021/04/28 09:31:11;;;;;;;0.42;0.42;;;;;;;11.52;51.15;101166.55;1828195;77;21407;-45
2021/04/28 09:33:48;;;;;;;1.75;0.75;;;;;;;11.52;51.15;101166.55;1825096;78;21102;-46
2021/04/28 09:36:25;;;;;;;0.10;0.10;;;;;;;11.62;54.12;101171.21;1794002;78;21107;-45
2021/04/28 09:38:57;;;;;;;0.20;0.20;;;;;;;11.85;55.05;101174.04;1803656;78;22024;-46
2021/04/28 09:41:34;;;;;;;0.98;0.20;;;;;;;12.11;53.31;101172.73;1806114;77;21168;-45
2021/04/28 09:44:18;;;;;;;0.57;0.57;;;;;;;12.29;52.59;101166.75;1792716;78;21138;-46
2021/04/28 09:47:08;;;;;;;0.23;0.15;;;;;;;12.35;48.56;101164.81;1792364;80;21118;-45
2021/04/28 09:49:54;;;;;;;0.30;0.30;;;;;;;12.24;48.56;101168.93;1808278;77;21542;-45
2021/04/28 09:52:37;;;;;;;0.50;0.50;;;;;;;11.97;48.25;101166.43;1807745;78;21127;-46
2021/04/28 09:55:09;;;;;;;1.17;0.85;;;;;;;11.92;51.04;101169.16;1784835;80;21154;-46
2021/04/28 09:57:42;;;;;;;1.85;0.50;;;;;;;12.01;50.03;101167.52;1778919;80;21541;-46
2021/04/28 10:00:22;;;;;;;0.28;0.28;;;;;;;12.07;50.21;101162.03;1749080;80;21114;-46
2021/04/28 10:02:57;;;;;;;1.02;0.40;;;;;;;12.12;50.39;101163.45;1761048;81;21110;-46
2021/04/28 10:05:35;;;;;;;0.13;0.13;;;;;;;12.09;45.02;101159.33;1783181;80;21146;-46
2021/04/28 10:08:20;;;;;;;3.15;0.45;;;;;;;11.88;48.46;101162.57;1786098;79;21161;-46
2021/04/28 10:10:50;;;;;;;0.37;0.37;;;;;;;11.90;47.06;101156.28;1752172;81;21210;-45
2021/04/28 10:13:18;;;;;;;0.57;0.47;;;;;;;11.88;47.54;101153.54;1752568;81;21506;-46
2021/04/28 10:15:45;;;;;;;0.10;0.10;;;;;;;11.91;47.35;101149.70;1753400;80;21094;-46
2021/04/28 10:18:15;;;;;;;0.45;0.45;;;;;;;11.97;50.07;101150.00;1763885;79;21153;-45
2021/04/28 10:20:45;;;;;;;0.30;0.30;;;;;;;12.05;50.53;101153.56;1733601;81;21177;-45
2021/04/28 10:23:15;;;;;;;0.53;0.53;;;;;;;12.11;46.62;101146.71;1726230;83;21114;-46
2021/04/28 10:25:49;;;;;;;0.45;0.23;;;;;;;12.09;48.06;101139.31;1726427;83;21169;-46
2021/04/28 10:28:18;;;;;;;0.75;0.40;;;;;;;12.17;47.62;101147.01;1737272;80;21202;-46
2021/04/28 10:30:47;;;;;;;0.30;0.30;;;;;;;12.13;48.37;101147.27;1696756;83;21127;-46
2021/04/28 10:33:19;;;;;;;0.50;0.33;;;;;;;12.12;49.78;101149.75;1744642;81;21290;-46
2021/04/28 10:35:47;;;;;;;0.20;0.20;;;;;;;12.23;50.15;101140.42;1750145;81;21179;-46
2021/04/28 10:38:24;;;;;;;0.70;0.28;;;;;;;12.35;49.38;101145.08;1752450;80;21266;-46
2021/04/28 10:40:53;;;;;;;0.00;0.00;;;;;;;12.41;48.35;101142.63;1750737;81;21123;-46
2021/04/28 10:43:34;;;;;;;0.30;0.30;;;;;;;12.48;50.47;101140.41;1730875;81;21114;-46
2021/04/28 10:46:18;;;;;;;0.40;0.40;;;;;;;12.62;49.36;101142.60;1713697;80;21629;-46
2021/04/28 10:48:47;;;;;;;0.72;0.72;;;;;;;12.66;46.02;101145.05;1730574;81;21186;-46
2021/04/28 10:51:38;;;;;;;0.33;0.33;;;;;;;12.56;46.85;101143.69;1741557;81;21494;-46
2021/04/28 10:54:26;;;;;;;0.50;0.50;;;;;;;12.56;46.08;101139.58;1710369;81;21545;-46
2021/04/28 10:57:06;;;;;;;1.22;1.12;;;;;;;12.61;44.86;101138.20;1729264;81;21186;-46
2021/04/28 10:59:36;;;;;;;0.47;0.47;;;;;;;12.60;45.34;101136.57;1725831;83;21618;-46
2021/04/28 11:02:09;;;;;;;0.23;0.20;;;;;;;12.55;45.30;101135.20;1726403;82;21567;-46
2021/04/28 11:04:37;;;;;;;0.25;0.25;;;;;;;12.55;47.65;101129.72;1751888;80;21096;-46
2021/04/28 11:07:05;;;;;;;0.37;0.37;;;;;;;12.54;46.83;101129.46;1743845;81;21146;-45
2021/04/28 11:09:33;;;;;;;1.55;1.07;;;;;;;12.55;46.80;101125.61;1750694;81;21143;-46
2021/04/28 11:12:01;;;;;;;0.40;0.40;;;;;;;12.59;48.68;101126.71;1725076;81;21593;-46
2021/04/28 11:14:30;;;;;;;0.20;0.20;;;;;;;12.66;48.36;101127.22;1744571;80;21510;-46
2021/04/28 11:17:15;;;;;;;1.40;0.70;;;;;;;12.68;46.38;101125.03;1719931;83;21131;-46
2021/04/28 11:19:43;;;;;;;0.35;0.30;;;;;;;12.73;47.01;101131.87;1720545;83;21134;-46
2021/04/28 11:22:21;;;;;;;1.75;1.00;;;;;;;12.81;45.12;101126.38;1740206;78;21122;-45
2021/04/28 11:24:52;;;;;;;1.35;1.27;;;;;;;12.84;46.38;101114.31;1784980;80;21202;-45
2021/04/28 11:28:03;;;;;;;1.22;0.62;;;;;;;12.99;45.45;101116.75;1785683;80;21157;-46
2021/04/28 11:30:44;;;;;;;0.68;0.68;;;;;;;13.13;45.30;101121.36;1734471;82;21137;-46
2021/04/28 11:33:27;;;;;;;0.53;0.40;;;;;;;13.29;44.59;101118.02;1774086;78;21118;-46
2021/04/28 11:36:00;;;;;;;0.50;0.50;;;;;;;13.42;45.06;101115.77;1760897;80;21122;-46
2021/04/28 11:38:30;;;;;;;1.27;1.10;;;;;;;13.57;44.67;101110.19;1720870;82;21124;-46
2021/04/28 11:41:11;;;;;;;0.45;0.33;;;;;;;13.76;45.48;101112.55;1755071;81;21577;-46